Time;durP1;ratioP1;P1;durP2;ratioP2;P2;SDS_P1;SDS_P2;PMS_P1;PMS_P2;Temp;Humidity;BMP_temperature;BMP_pressure;BME280_temperature;BME280_humidity;BME280_pressure;Samples;Min_cycle;Max_cycle;Signal;HPM_P1;HPM_P2
2024/02/14 00:01:41;;;;;;;;;;;;;;;5.69;100.00;100958.22;5106199;28;19930;-79
2024/02/14 00:04:07;;;;;;;;;;;;;;;5.71;100.00;100960.72;5102822;28;19919;-79
2024/02/14 00:06:36;;;;;;;;;;;;;;;5.74;100.00;100942.53;5104313;28;19923;-80
2024/02/14 00:09:01;;;;;;;;;;;;;;;5.74;100.00;100939.84;5105881;28;19924;-79
2024/02/14 00:11:26;;;;;;;;;;;;;;;5.75;100.00;100938.03;5104341;28;19927;-79
2024/02/14 00:13:51;;;;;;;;;;;;;;;5.74;100.00;100910.47;5105506;28;19924;-79
2024/02/14 00:16:17;;;;;;;;;;;;;;;5.73;100.00;100937.34;5100223;28;20415;-79
2024/02/14 00:18:42;;;;;;;;;;;;;;;5.75;100.00;100946.03;5094098;28;20417;-79
2024/02/14 00:21:07;;;;;;;;;;;;;;;5.71;100.00;100926.84;5101196;28;20001;-79
2024/02/14 00:23:32;;;;;;;;;;;;;;;5.73;100.00;100932.00;5104074;28;19924;-79
2024/02/14 00:25:58;;;;;;;;;;;;;;;5.74;100.00;100933.69;5108199;28;19946;-79
2024/02/14 00:28:26;;;;;;;;;;;;;;;5.73;100.00;100927.53;5109695;28;19928;-79
2024/02/14 00:30:51;;;;;;;;;;;;;;;5.74;100.00;100928.34;5106787;28;20301;-79
2024/02/14 00:33:17;;;;;;;;;;;;;;;5.74;100.00;100939.84;5107798;28;20380;-79
2024/02/14 00:35:42;;;;;;;;;;;;;;;5.75;100.00;100941.53;5103128;28;20829;-79
2024/02/14 00:38:08;;;;;;;;;;;;;;;5.83;100.00;100932.69;5101246;28;19935;-79
2024/02/14 00:40:33;;;;;;;;;;;;;;;5.85;100.00;100924.53;5112593;28;19919;-79
2024/02/14 00:42:58;;;;;;;;;;;;;;;5.88;100.00;100925.03;5100503;28;19921;-79
2024/02/14 00:45:23;;;;;;;;;;;;;;;5.90;100.00;100917.69;5100681;28;19947;-78
2024/02/14 00:47:49;;;;;;;;;;;;;;;5.89;100.00;100921.34;5105687;28;19920;-79
2024/02/14 00:50:14;;;;;;;;;;;;;;;5.90;100.00;100916.88;5108592;28;19981;-80
2024/02/14 00:52:39;;;;;;;;;;;;;;;5.92;100.00;100913.03;5103325;28;19951;-80
2024/02/14 00:55:05;;;;;;;;;;;;;;;5.94;100.00;100917.38;5101639;28;19920;-79
2024/02/14 00:57:30;;;;;;;;;;;;;;;6.00;100.00;100911.41;5102405;28;20154;-80
2024/02/14 00:59:56;;;;;;;;;;;;;;;6.01;100.00;100910.38;5110082;28;19920;-79
2024/02/14 01:02:21;;;;;;;;;;;;;;;6.02;100.00;100898.69;5103306;28;20060;-80
2024/02/14 01:04:47;;;;;;;;;;;;;;;6.04;100.00;100896.69;5104082;28;20014;-80
2024/02/14 01:07:12;;;;;;;;;;;;;;;6.09;100.00;100899.72;5107640;28;19972;-79
2024/02/14 01:09:37;;;;;;;;;;;;;;;6.12;100.00;100894.03;5102244;28;20036;-80
2024/02/14 01:12:02;;;;;;;;;;;;;;;6.15;100.00;100890.19;5110908;28;20017;-80
2024/02/14 01:14:28;;;;;;;;;;;;;;;6.18;100.00;100887.19;5100832;28;19959;-80
2024/02/14 01:16:56;;;;;;;;;;;;;;;6.21;100.00;100887.66;5103243;28;19923;-80
2024/02/14 01:19:23;;;;;;;;;;;;;;;6.19;100.00;100880.84;5104456;28;19939;-81
2024/02/14 01:21:49;;;;;;;;;;;;;;;6.20;100.00;100891.34;5110498;28;20334;-80
2024/02/14 01:24:14;;;;;;;;;;;;;;;6.21;100.00;100890.34;5107955;28;19923;-81
2024/02/14 01:26:40;;;;;;;;;;;;;;;6.22;100.00;100878.66;5105032;28;20384;-80
2024/02/14 01:29:05;;;;;;;;;;;;;;;6.23;100.00;100874.16;5103753;28;19920;-80
2024/02/14 01:31:31;;;;;;;;;;;;;;;6.23;100.00;100884.84;5096338;28;20359;-80
2024/02/14 01:33:57;;;;;;;;;;;;;;;6.18;100.00;100884.50;5095654;28;19927;-80
2024/02/14 01:36:22;;;;;;;;;;;;;;;6.19;100.00;100884.31;5100506;28;19924;-81
2024/02/14 01:38:47;;;;;;;;;;;;;;;6.26;100.00;100886.34;5095226;28;19920;-81
2024/02/14 01:41:13;;;;;;;;;;;;;;;6.29;100.00;100884.16;5111545;28;19920;-80
2024/02/14 01:43:38;;;;;;;;;;;;;;;6.35;100.00;100885.34;5109683;28;19927;-80
2024/02/14 01:46:04;;;;;;;;;;;;;;;6.40;100.00;100874.13;5105576;28;19959;-80
2024/02/14 01:48:29;;;;;;;;;;;;;;;6.41;100.00;100884.66;5106563;28;19947;-80
2024/02/14 01:50:55;;;;;;;;;;;;;;;6.45;100.00;100872.63;5073440;28;19924;-80
2024/02/14 01:53:21;;;;;;;;;;;;;;;6.51;100.00;100868.44;5082220;28;19922;-80
2024/02/14 01:55:46;;;;;;;;;;;;;;;6.55;100.00;100860.91;5089993;28;20015;-80
2024/02/14 01:58:11;;;;;;;;;;;;;;;6.55;100.00;100877.78;5105760;28;19969;-80
2024/02/14 02:00:36;;;;;;;;;;;;;;;6.58;100.00;100865.91;5107562;28;19916;-80
2024/02/14 02:03:02;;;;;;;;;;;;;;;6.61;100.00;100858.41;5079198;28;19927;-80
2024/02/14 02:05:28;;;;;;;;;;;;;;;6.65;100.00;100845.50;5102707;28;20394;-80
2024/02/14 02:07:54;;;;;;;;;;;;;;;6.66;100.00;100863.22;5106613;28;19923;-80
2024/02/14 02:10:21;;;;;;;;;;;;;;;6.65;100.00;100857.03;5078967;28;19927;-79
2024/02/14 02:12:46;;;;;;;;;;;;;;;6.69;100.00;100857.53;5108847;28;19916;-80
2024/02/14 02:15:13;;;;;;;;;;;;;;;6.72;100.00;100867.88;5103856;28;19928;-79
2024/02/14 02:17:39;;;;;;;;;;;;;;;6.74;100.00;100843.66;5111896;28;20267;-80
2024/02/14 02:20:07;;;;;;;;;;;;;;;6.74;100.00;100857.84;5101131;28;20372;-80
2024/02/14 02:22:35;;;;;;;;;;;;;;;6.77;100.00;100854.84;5102267;28;19919;-80
2024/02/14 02:25:00;;;;;;;;;;;;;;;6.78;100.00;100856.50;5100491;28;20316;-80
2024/02/14 02:27:25;;;;;;;;;;;;;;;6.82;100.00;100856.97;5099935;28;20004;-78
2024/02/14 02:29:50;;;;;;;;;;;;;;;6.86;100.00;100846.78;5106152;28;19927;-78
2024/02/14 02:32:17;;;;;;;;;;;;;;;6.79;100.00;100852.81;5100251;28;19920;-77
2024/02/14 02:34:44;;;;;;;;;;;;;;;6.83;100.00;100848.81;5099334;28;20054;-77
2024/02/14 02:37:09;;;;;;;;;;;;;;;6.85;100.00;100850.47;5096585;28;19919;-77
2024/02/14 02:39:36;;;;;;;;;;;;;;;6.89;100.00;100857.13;5107871;28;19923;-78
2024/02/14 02:42:02;;;;;;;;;;;;;;;6.87;100.00;100851.97;5103300;28;19927;-78
2024/02/14 02:44:27;;;;;;;;;;;;;;;6.85;100.00;100842.44;5103705;28;20280;-78
2024/02/14 02:46:52;;;;;;;;;;;;;;;6.87;100.00;100848.47;5103727;28;20294;-78
2024/02/14 02:49:17;;;;;;;;;;;;;;;6.89;100.00;100851.78;5098409;28;19931;-78
2024/02/14 02:51:42;;;;;;;;;;;;;;;6.96;100.00;100823.31;5097480;28;19920;-78
2024/02/14 02:54:08;;;;;;;;;;;;;;;6.99;100.00;100849.75;5095750;28;20019;-78
2024/02/14 02:56:33;;;;;;;;;;;;;;;6.96;100.00;100844.72;5104144;28;19920;-77
2024/02/14 02:58:59;;;;;;;;;;;;;;;6.99;100.00;100833.69;5100842;28;19920;-77
2024/02/14 03:01:24;;;;;;;;;;;;;;;6.96;100.00;100848.25;5094362;28;20358;-77
2024/02/14 03:03:50;;;;;;;;;;;;;;;6.98;100.00;100838.19;5101467;28;19965;-76
2024/02/14 03:06:15;;;;;;;;;;;;;;;7.01;100.00;100847.72;5106687;28;19924;-77
2024/02/14 03:08:40;;;;;;;;;;;;;;;6.99;100.00;100852.41;5104031;28;20318;-77
2024/02/14 03:11:06;;;;;;;;;;;;;;;6.99;100.00;100844.41;5098309;28;20310;-78
2024/02/14 03:13:31;;;;;;;;;;;;;;;6.96;100.00;100847.41;5103153;28;20309;-77
2024/02/14 03:15:58;;;;;;;;;;;;;;;6.95;100.00;100848.41;5109132;28;19920;-77
2024/02/14 03:18:23;;;;;;;;;;;;;;;6.88;100.00;100845.59;5106705;28;20405;-78
2024/02/14 03:20:49;;;;;;;;;;;;;;;6.92;100.00;100848.75;5097711;28;19928;-78
2024/02/14 03:23:15;;;;;;;;;;;;;;;6.88;100.00;100853.63;5100515;28;20081;-81
2024/02/14 03:25:40;;;;;;;;;;;;;;;6.94;100.00;100849.41;5110285;28;19964;-80
2024/02/14 03:28:08;;;;;;;;;;;;;;;6.90;100.00;100846.25;5103328;28;19919;-80
2024/02/14 03:30:34;;;;;;;;;;;;;;;6.91;100.00;100847.94;5097813;28;19920;-80
2024/02/14 03:32:59;;;;;;;;;;;;;;;6.86;100.00;100854.81;5103242;28;19945;-80
2024/02/14 03:35:26;;;;;;;;;;;;;;;6.91;100.00;100849.75;5109983;28;19995;-81
2024/02/14 03:37:53;;;;;;;;;;;;;;;6.84;100.00;100849.63;5106889;28;19943;-82
2024/02/14 03:40:20;;;;;;;;;;;;;;;6.88;100.00;100860.84;5100314;28;19961;-82
2024/02/14 03:42:45;;;;;;;;;;;;;;;6.89;100.00;100857.13;5107777;28;19923;-81
2024/02/14 03:45:10;;;;;;;;;;;;;;;6.89;100.00;100857.13;5094980;28;20413;-78
2024/02/14 03:47:39;;;;;;;;;;;;;;;6.88;100.00;100860.84;5103086;28;19920;-78
2024/02/14 03:50:04;;;;;;;;;;;;;;;6.81;100.00;100856.16;5101477;28;19920;-79
2024/02/14 03:52:32;;;;;;;;;;;;;;;6.85;100.00;100855.81;5103190;28;20321;-78
2024/02/14 03:54:58;;;;;;;;;;;;;;;6.85;100.00;100861.19;5115028;28;19976;-78
2024/02/14 03:57:25;;;;;;;;;;;;;;;6.87;100.00;100853.81;5113193;28;19985;-78
2024/02/14 03:59:50;;;;;;;;;;;;;;;6.87;100.00;100870.69;5107063;28;20261;-78
2024/02/14 04:02:15;;;;;;;;;;;;;;;6.90;100.00;100859.66;5114512;28;20408;-79
2024/02/14 04:04:41;;;;;;;;;;;;;;;6.92;100.00;100864.81;5105857;28;20368;-80
2024/02/14 04:07:08;;;;;;;;;;;;;;;6.93;100.00;100866.47;5107550;28;20366;-79
2024/02/14 04:09:33;;;;;;;;;;;;;;;6.85;100.00;100867.34;5102722;28;19927;-79
2024/02/14 04:11:59;;;;;;;;;;;;;;;6.90;100.00;100864.16;5101215;28;19919;-79
2024/02/14 04:14:24;;;;;;;;;;;;;;;6.92;100.00;100864.81;5107982;28;20317;-79
2024/02/14 04:16:49;;;;;;;;;;;;;;;6.93;100.00;100874.50;5110109;28;19929;-79
2024/02/14 04:19:17;;;;;;;;;;;;;;;6.94;100.00;100877.03;5104232;28;19921;-80
2024/02/14 04:21:42;;;;;;;;;;;;;;;6.94;100.00;100876.19;5098292;28;20010;-79
2024/02/14 04:24:07;;;;;;;;;;;;;;;6.93;100.00;100872.69;5110806;28;20006;-79
2024/02/14 04:26:33;;;;;;;;;;;;;;;6.95;100.00;100877.84;5107832;28;19981;-80
2024/02/14 04:28:58;;;;;;;;;;;;;;;7.00;100.00;100870.16;5111725;28;19943;-78
2024/02/14 04:31:23;;;;;;;;;;;;;;;6.97;100.00;100876.66;5112014;28;19988;-80
2024/02/14 04:33:51;;;;;;;;;;;;;;;7.00;100.00;100878.19;5098685;28;20018;-79
2024/02/14 04:36:20;;;;;;;;;;;;;;;6.98;100.00;100880.19;5109166;28;20288;-79
2024/02/14 04:38:46;;;;;;;;;;;;;;;7.02;100.00;100876.16;5113358;28;19920;-78
2024/02/14 04:41:17;;;;;;;;;;;;;;;7.00;100.00;100875.50;5110303;28;19920;-79
2024/02/14 04:43:42;;;;;;;;;;;;;;;7.00;100.00;100885.34;5101448;28;19923;-79
2024/02/14 04:46:08;;;;;;;;;;;;;;;7.05;100.00;100883.00;5112923;28;19927;-78
2024/02/14 04:48:34;;;;;;;;;;;;;;;7.09;100.00;100887.84;5105653;28;20335;-79
2024/02/14 04:50:59;;;;;;;;;;;;;;;7.06;100.00;100885.50;5113364;28;19959;-79
2024/02/14 04:53:24;;;;;;;;;;;;;;;7.09;100.00;100889.69;5100187;28;19919;-80
2024/02/14 04:55:49;;;;;;;;;;;;;;;7.18;100.00;100887.81;5104817;28;19920;-79
2024/02/14 04:58:15;;;;;;;;;;;;;;;7.22;100.00;100884.63;5112063;28;19920;-79
2024/02/14 05:00:40;;;;;;;;;;;;;;;7.20;100.00;100897.34;5111616;28;20616;-79
2024/02/14 05:03:05;;;;;;;;;;;;;;;7.22;100.00;100889.97;5106151;28;19916;-79
2024/02/14 05:05:30;;;;;;;;;;;;;;;7.22;100.00;100897.19;5103884;28;19920;-80
2024/02/14 05:07:56;;;;;;;;;;;;;;;7.25;100.00;100905.69;5108695;28;19920;-82
2024/02/14 05:10:21;;;;;;;;;;;;;;;7.25;100.00;100911.03;5104727;28;20420;-83
2024/02/14 05:12:46;;;;;;;;;;;;;;;7.32;100.00;100902.34;5104577;28;19931;-80
2024/02/14 05:15:12;;;;;;;;;;;;;;;7.31;100.00;100914.88;5105784;28;19954;-82
2024/02/14 05:17:37;;;;;;;;;;;;;;;7.31;100.00;100920.22;5097139;28;19920;-81
2024/02/14 05:20:08;;;;;;;;;;;;;;;7.33;100.00;100923.56;5102497;28;20003;-86
2024/02/14 05:22:34;;;;;;;;;;;;;;;7.32;100.00;100921.06;5097548;28;20402;-89
2024/02/14 05:25:00;;;;;;;;;;;;;;;7.36;100.00;100927.72;5103540;28;19920;-80
2024/02/14 05:27:26;;;;;;;;;;;;;;;7.36;100.00;100914.34;5107252;28;19935;-79
2024/02/14 05:29:51;;;;;;;;;;;;;;;7.34;100.00;100933.28;5101868;28;20353;-80
2024/02/14 05:32:19;;;;;;;;;;;;;;;7.36;100.00;100925.06;5102832;28;20014;-80
2024/02/14 05:34:44;;;;;;;;;;;;;;;7.36;100.00;100923.22;5105537;28;19917;-79
2024/02/14 05:37:09;;;;;;;;;;;;;;;7.36;100.00;100920.53;5106967;28;20348;-79
2024/02/14 05:39:35;;;;;;;;;;;;;;;7.38;100.00;100931.91;5106364;28;20389;-78
2024/02/14 05:42:00;;;;;;;;;;;;;;;7.35;100.00;100931.41;5111045;28;20366;-79
2024/02/14 05:44:27;;;;;;;;;;;;;;;7.34;100.00;100935.09;5098907;28;20410;-79
2024/02/14 05:46:52;;;;;;;;;;;;;;;7.40;100.00;100929.06;5100601;28;19966;-79
2024/02/14 05:49:17;;;;;;;;;;;;;;;7.40;100.00;100935.25;5105267;28;19978;-79
2024/02/14 05:51:43;;;;;;;;;;;;;;;7.43;100.00;100937.56;5108742;28;19927;-78
2024/02/14 05:54:08;;;;;;;;;;;;;;;7.40;100.00;100937.94;5099579;28;19920;-79
2024/02/14 05:56:33;;;;;;;;;;;;;;;7.41;100.00;100931.56;5091885;28;19927;-80
2024/02/14 05:58:58;;;;;;;;;;;;;;;7.40;100.00;100943.31;5102918;28;19920;-79
2024/02/14 06:01:23;;;;;;;;;;;;;;;7.45;100.00;100948.13;5106012;28;19927;-79
2024/02/14 06:03:50;;;;;;;;;;;;;;;7.43;100.00;100948.28;5098080;28;19920;-79
2024/02/14 06:06:15;;;;;;;;;;;;;;;7.47;100.00;100950.63;5094772;28;19963;-79
2024/02/14 06:08:40;;;;;;;;;;;;;;;7.42;100.00;100951.16;5111704;28;19963;-80
2024/02/14 06:11:06;;;;;;;;;;;;;;;7.50;100.00;100950.28;5105193;28;20367;-79
2024/02/14 06:13:31;;;;;;;;;;;;;;;7.37;100.00;100949.00;5110422;28;20324;-79
2024/02/14 06:15:56;;;;;;;;;;;;;;;7.41;100.00;100952.97;5108361;28;19927;-79
2024/02/14 06:18:21;;;;;;;;;;;;;;;7.49;100.00;100953.97;5102395;28;20381;-79
2024/02/14 06:20:46;;;;;;;;;;;;;;;7.48;100.00;100954.97;5105182;28;20366;-79
2024/02/14 06:23:12;;;;;;;;;;;;;;;7.49;100.00;100952.13;5099229;28;19924;-79
2024/02/14 06:25:37;;;;;;;;;;;;;;;7.49;100.00;100962.00;5103293;28;19928;-79
2024/02/14 06:28:02;;;;;;;;;;;;;;;7.38;100.00;100958.72;5107784;28;20458;-79
2024/02/14 06:30:30;;;;;;;;;;;;;;;7.51;100.00;100968.03;5111034;28;20451;-79
2024/02/14 06:32:56;;;;;;;;;;;;;;;7.53;100.00;100960.66;5098989;28;19943;-78
2024/02/14 06:35:21;;;;;;;;;;;;;;;7.57;100.00;100961.97;5104302;28;20002;-79
2024/02/14 06:37:46;;;;;;;;;;;;;;;7.55;100.00;100950.59;5108296;28;20397;-79
2024/02/14 06:40:12;;;;;;;;;;;;;;;7.57;100.00;100972.69;5099023;28;20328;-79
2024/02/14 06:42:37;;;;;;;;;;;;;;;7.55;100.00;100970.16;5099275;28;20346;-79
2024/02/14 06:45:03;;;;;;;;;;;;;;;7.57;100.00;100975.38;5103676;28;19923;-78
2024/02/14 06:47:29;;;;;;;;;;;;;;;7.54;100.00;100979.22;5105700;28;19928;-79
2024/02/14 06:49:55;;;;;;;;;;;;;;;7.57;100.00;100978.06;5102002;28;19919;-78
2024/02/14 06:52:20;;;;;;;;;;;;;;;7.55;100.00;100980.06;5101527;28;20382;-79
2024/02/14 06:54:45;;;;;;;;;;;;;;;7.58;100.00;100995.81;5110404;28;20331;-79
2024/02/14 06:57:10;;;;;;;;;;;;;;;7.56;100.00;100993.28;5099174;28;19924;-79
2024/02/14 06:59:37;;;;;;;;;;;;;;;7.64;100.00;100999.63;5100105;28;19920;-78
2024/02/14 07:02:03;;;;;;;;;;;;;;;7.59;100.00;101009.00;5104514;28;19924;-77
2024/02/14 07:04:28;;;;;;;;;;;;;;;7.58;100.00;101003.84;5110239;28;19976;-79
2024/02/14 07:06:53;;;;;;;;;;;;;;;7.63;100.00;101009.50;5099587;28;19970;-79
2024/02/14 07:09:19;;;;;;;;;;;;;;;7.65;100.00;101001.28;5100040;28;19923;-79
2024/02/14 07:11:45;;;;;;;;;;;;;;;7.64;100.00;101013.84;5109365;28;19927;-78
2024/02/14 07:14:10;;;;;;;;;;;;;;;7.66;100.00;101011.81;5111269;28;19977;-78
2024/02/14 07:16:36;;;;;;;;;;;;;;;7.65;100.00;101014.69;5109920;28;19923;-79
2024/02/14 07:19:02;;;;;;;;;;;;;;;7.66;100.00;101011.81;5109525;28;19927;-79
2024/02/14 07:21:27;;;;;;;;;;;;;;;7.65;100.00;101002.13;5096222;28;20660;-79
2024/02/14 07:23:53;;;;;;;;;;;;;;;7.66;100.00;101013.69;5099125;28;19977;-78
2024/02/14 07:26:18;;;;;;;;;;;;;;;7.69;100.00;101018.66;5106462;28;19927;-79
2024/02/14 07:28:44;;;;;;;;;;;;;;;7.72;100.00;101016.50;5106502;28;19923;-78
2024/02/14 07:31:09;;;;;;;;;;;;;;;7.73;100.00;101012.81;5113982;28;20015;-78
2024/02/14 07:33:34;;;;;;;;;;;;;;;7.67;100.00;101008.13;5114394;28;19959;-79
2024/02/14 07:36:00;;;;;;;;;;;;;;;7.67;100.00;101013.50;5111720;28;19919;-79
2024/02/14 07:38:25;;;;;;;;;;;;;;;7.70;100.00;101015.84;5099426;28;19920;-78
2024/02/14 07:40:50;;;;;;;;;;;;;;;7.67;100.00;101021.53;5104038;28;19920;-78
2024/02/14 07:43:15;;;;;;;;;;;;;;;7.73;100.00;101015.50;5105067;28;20046;-78
2024/02/14 07:45:41;;;;;;;;;;;;;;;7.71;100.00;101027.38;5107842;28;19963;-80
2024/02/14 07:48:07;;;;;;;;;;;;;;;7.76;100.00;101013.47;5102635;28;19969;-78
2024/02/14 07:50:33;;;;;;;;;;;;;;;7.81;100.00;101014.63;5101383;28;19928;-78
2024/02/14 07:53:00;;;;;;;;;;;;;;;7.79;100.00;101024.69;5104849;28;20408;-79
2024/02/14 07:55:26;;;;;;;;;;;;;;;7.79;100.00;101024.69;5107409;28;20291;-79
2024/02/14 07:57:52;;;;;;;;;;;;;;;7.78;100.00;101020.31;5108880;28;19930;-79
2024/02/14 08:00:22;;;;;;;;;;;;;;;7.85;100.00;101028.50;5113539;28;19926;-78
2024/02/14 08:02:47;;;;;;;;;;;;;;;7.88;100.00;101017.44;5113872;28;19919;-78
2024/02/14 08:05:13;;;;;;;;;;;;;;;7.85;100.00;101028.50;5101898;28;20011;-78
2024/02/14 08:07:38;;;;;;;;;;;;;;;7.85;100.00;101029.31;5097718;28;19920;-78
2024/02/14 08:10:04;;;;;;;;;;;;;;;7.86;100.00;101031.00;5102912;28;19942;-78
2024/02/14 08:12:33;;;;;;;;;;;;;;;7.92;100.00;101029.47;5102886;28;19924;-79
2024/02/14 08:15:02;;;;;;;;;;;;;;;7.91;100.00;101033.16;5110561;28;19970;-78
2024/02/14 08:17:28;;;;;;;;;;;;;;;7.99;100.00;101040.34;5111659;28;20023;-78
2024/02/14 08:19:53;;;;;;;;;;;;;;;7.97;100.00;101040.50;5109285;28;20556;-78
2024/02/14 08:22:18;;;;;;;;;;;;;;;8.01;100.00;101039.13;5112228;28;20588;-78
2024/02/14 08:24:43;;;;;;;;;;;;;;;8.02;100.00;101040.81;5101165;28;19919;-78
2024/02/14 08:27:09;;;;;;;;;;;;;;;8.09;100.00;101032.91;5104993;28;19969;-78
2024/02/14 08:29:34;;;;;;;;;;;;;;;8.11;100.00;101038.09;5107473;28;19919;-78
2024/02/14 08:31:59;;;;;;;;;;;;;;;8.15;100.00;101034.03;5101812;28;19924;-78
2024/02/14 08:34:25;;;;;;;;;;;;;;;8.18;100.00;101041.72;5084275;28;20422;-78
2024/02/14 08:36:50;;;;;;;;;;;;;;;8.17;100.00;101042.75;5104538;28;19945;-79
2024/02/14 08:39:15;;;;;;;;;;;;;;;8.13;100.00;101046.78;5106383;28;19919;-79
2024/02/14 08:41:44;;;;;;;;;;;;;;;8.22;100.00;101052.94;5110723;28;19995;-79
2024/02/14 08:44:09;;;;;;;;;;;;;;;8.19;100.00;101051.44;5103299;28;19920;-78
2024/02/14 08:46:35;;;;;;;;;;;;;;;8.15;100.00;101052.81;5097099;28;19920;-79
2024/02/14 08:49:01;;;;;;;;;;;;;;;8.24;100.00;101062.50;5111317;28;19926;-78
2024/02/14 08:51:27;;;;;;;;;;;;;;;8.28;100.00;101071.88;5108033;28;20402;-79
2024/02/14 08:53:55;;;;;;;;;;;;;;;8.24;100.00;101065.16;5105321;28;19920;-79
2024/02/14 08:56:21;;;;;;;;;;;;;;;8.29;100.00;101073.53;5105352;28;19920;-79
2024/02/14 08:58:47;;;;;;;;;;;;;;;8.33;100.00;101074.00;5104108;28;20011;-78
2024/02/14 09:01:12;;;;;;;;;;;;;;;8.38;100.00;101071.63;5106897;28;20007;-78
2024/02/14 09:03:38;;;;;;;;;;;;;;;8.39;100.00;101072.47;5103620;28;19963;-78
2024/02/14 09:06:04;;;;;;;;;;;;;;;8.32;100.00;101080.38;5120690;28;19922;-79
2024/02/14 09:08:30;;;;;;;;;;;;;;;8.32;100.00;101078.53;5112314;28;20014;-78
2024/02/14 09:10:56;;;;;;;;;;;;;;;8.29;100.00;101073.53;5104421;28;19932;-79
2024/02/14 09:13:21;;;;;;;;;;;;;;;8.35;100.00;101072.81;5107233;28;19927;-78
2024/02/14 09:15:48;;;;;;;;;;;;;;;8.39;100.00;101083.19;5102486;28;19920;-78
2024/02/14 09:18:13;;;;;;;;;;;;;;;8.32;100.00;101083.88;5099745;28;19966;-78
2024/02/14 09:20:38;;;;;;;;;;;;;;;8.33;100.00;101077.50;5100702;28;19963;-78
2024/02/14 09:23:03;;;;;;;;;;;;;;;8.37;100.00;101087.91;5111044;28;19927;-79
2024/02/14 09:25:29;;;;;;;;;;;;;;;8.34;100.00;101087.22;5103941;28;20003;-79
2024/02/14 09:27:54;;;;;;;;;;;;;;;8.37;100.00;101087.91;5102350;28;20296;-78
2024/02/14 09:30:19;;;;;;;;;;;;;;;8.42;100.00;101086.34;5105315;28;19931;-79
2024/02/14 09:32:44;;;;;;;;;;;;;;;8.40;100.00;101084.88;5109507;28;19924;-78
2024/02/14 09:35:10;;;;;;;;;;;;;;;8.44;100.00;101083.50;5111093;28;19920;-79
2024/02/14 09:37:37;;;;;;;;;;;;;;;8.42;100.00;101090.91;5108183;28;19923;-78
2024/02/14 09:40:03;;;;;;;;;;;;;;;8.49;100.00;101084.66;5104158;28;19923;-78
2024/02/14 09:42:29;;;;;;;;;;;;;;;8.47;100.00;101089.34;5101729;28;19934;-79
2024/02/14 09:44:54;;;;;;;;;;;;;;;8.47;100.00;101100.06;5093800;28;19920;-79
2024/02/14 09:47:19;;;;;;;;;;;;;;;8.45;100.00;101077.13;5088836;28;19972;-78
2024/02/14 09:49:45;;;;;;;;;;;;;;;8.49;100.00;101110.66;5110404;28;19928;-78
2024/02/14 09:52:11;;;;;;;;;;;;;;;8.52;100.00;101112.97;5108043;28;19919;-79
2024/02/14 09:54:38;;;;;;;;;;;;;;;8.37;100.00;101106.66;5100615;28;19926;-80
2024/02/14 09:57:03;;;;;;;;;;;;;;;8.46;100.00;101116.38;5109109;28;19931;-78
2024/02/14 09:59:29;;;;;;;;;;;;;;;8.45;100.00;101103.97;5105327;28;19923;-78
2024/02/14 10:01:54;;;;;;;;;;;;;;;8.50;100.00;101104.28;5102743;28;19920;-79
2024/02/14 10:04:20;;;;;;;;;;;;;;;8.48;100.00;101108.97;5098040;28;20629;-79
2024/02/14 10:06:45;;;;;;;;;;;;;;;8.58;100.00;101095.34;5111693;28;20011;-78
2024/02/14 10:09:10;;;;;;;;;;;;;;;8.54;100.00;101110.97;5109399;28;20359;-79
2024/02/14 10:11:36;;;;;;;;;;;;;;;8.61;100.00;101111.94;5104703;28;19965;-79
2024/02/14 10:14:03;;;;;;;;;;;;;;;8.60;100.00;101118.31;5104040;28;19924;-79
2024/02/14 10:16:28;;;;;;;;;;;;;;;8.64;100.00;101114.28;5112100;28;19928;-78
2024/02/14 10:18:53;;;;;;;;;;;;;;;8.64;100.00;101103.53;5111049;28;19927;-79
2024/02/14 10:21:19;;;;;;;;;;;;;;;8.65;100.00;101110.53;5104411;28;19924;-79
2024/02/14 10:23:46;;;;;;;;;;;;;;;8.64;100.00;101116.97;5102291;28;19974;-79
2024/02/14 10:26:12;;;;;;;;;;;;;;;8.54;100.00;101123.56;5091239;28;19947;-79
2024/02/14 10:28:40;;;;;;;;;;;;;;;8.52;100.00;101118.34;5100954;28;20321;-79
2024/02/14 10:31:21;;;;;;;;;;;;;;;8.58;100.00;101120.34;5099238;28;19924;-78
2024/02/14 10:33:46;;;;;;;;;;;;;;;8.57;100.00;101121.34;5102810;28;19920;-78
2024/02/14 10:36:12;;;;;;;;;;;;;;;8.56;100.00;101135.78;5105296;28;19935;-78
2024/02/14 10:38:37;;;;;;;;;;;;;;;8.55;100.00;101131.41;5100085;28;19927;-79
2024/02/14 10:41:02;;;;;;;;;;;;;;;8.62;100.00;101135.06;5099211;28;19924;-78
2024/02/14 10:43:27;;;;;;;;;;;;;;;8.58;100.00;101136.44;5101694;28;19920;-79
2024/02/14 10:45:56;;;;;;;;;;;;;;;8.69;100.00;101126.28;5106252;28;19931;-78
2024/02/14 10:48:24;;;;;;;;;;;;;;;8.78;100.00;101125.25;5107727;28;20019;-79
2024/02/14 10:50:50;;;;;;;;;;;;;;;8.71;100.00;101129.66;5100993;28;19920;-78
2024/02/14 10:53:15;;;;;;;;;;;;;;;8.78;100.00;101139.50;5079694;28;19927;-79
2024/02/14 10:55:44;;;;;;;;;;;;;;;8.87;100.00;101131.41;5102779;28;19943;-79
2024/02/14 10:58:10;;;;;;;;;;;;;;;8.94;100.00;101133.19;5086217;28;19987;-79
2024/02/14 11:00:35;;;;;;;;;;;;;;;8.96;100.00;101138.34;5109032;28;20374;-79
2024/02/14 11:03:01;;;;;;;;;;;;;;;9.09;100.00;101135.09;5095738;28;19926;-79
2024/02/14 11:05:27;;;;;;;;;;;;;;;9.02;100.00;101137.66;5096142;28;19920;-79
2024/02/14 11:07:52;;;;;;;;;;;;;;;9.08;100.00;101142.31;5103307;28;20375;-80
2024/02/14 11:10:18;;;;;;;;;;;;;;;9.25;100.00;101124.19;5096887;28;20382;-79
2024/02/14 11:12:44;;;;;;;;;;;;;;;9.33;100.00;101122.47;5103310;28;19920;-79
2024/02/14 11:15:10;;;;;;;;;;;;;;;9.34;100.00;101129.50;5102878;28;19923;-79
2024/02/14 11:17:36;;;;;;;;;;;;;;;9.34;100.00;101140.25;5094490;28;19942;-79
2024/02/14 11:20:11;;;;;;;;;;;;;;;9.24;100.00;101135.97;5102277;28;19928;-79
2024/02/14 11:22:36;;;;;;;;;;;;;;;9.42;100.00;101120.53;5103790;28;19924;-79
2024/02/14 11:25:06;;;;;;;;;;;;;;;9.46;100.00;101133.41;5107616;28;19928;-79
2024/02/14 11:27:31;;;;;;;;;;;;;;;9.54;100.00;101130.63;5091509;28;20357;-79
2024/02/14 11:29:58;;;;;;;;;;;;;;;9.53;100.00;101134.34;5082040;28;20014;-78
2024/02/14 11:32:24;;;;;;;;;;;;;;;9.60;100.00;101136.31;5078296;28;20421;-79
2024/02/14 11:34:57;;;;;;;;;;;;;;;9.62;100.00;101136.97;5102956;28;19920;-79
2024/02/14 11:37:29;;;;;;;;;;;;;;;9.65;100.00;101133.91;5099704;28;19924;-79
2024/02/14 11:39:57;;;;;;;;;;;;;;;9.54;100.00;101136.00;5098958;28;19993;-79
2024/02/14 11:42:22;;;;;;;;;;;;;;;9.54;100.00;101130.63;5099628;28;19924;-79
2024/02/14 11:44:48;;;;;;;;;;;;;;;9.68;100.00;101131.69;5095346;28;19927;-79
2024/02/14 11:47:14;;;;;;;;;;;;;;;9.83;100.00;101131.69;5091181;28;20405;-79
2024/02/14 11:49:39;;;;;;;;;;;;;;;9.91;100.00;101125.38;5098286;28;19922;-79
2024/02/14 11:52:04;;;;;;;;;;;;;;;9.88;100.00;101119.56;5101493;28;20014;-79
2024/02/14 11:54:29;;;;;;;;;;;;;;;9.93;100.00;101112.59;5110384;28;19924;-79
2024/02/14 11:56:55;;;;;;;;;;;;;;;9.98;100.00;101110.16;5094797;28;19920;-78
2024/02/14 11:59:22;;;;;;;;;;;;;;;9.91;100.00;101111.09;5103428;28;20014;-78
2024/02/14 12:01:48;;;;;;;;;;;;;;;10.00;100.00;101110.81;5102692;28;20382;-79
2024/02/14 12:04:13;;;;;;;;;;;;;;;10.00;100.00;101116.19;5099167;28;19927;-78
2024/02/14 12:06:41;;;;;;;;;;;;;;;10.03;100.00;101115.00;5087947;28;19927;-78
2024/02/14 12:09:08;;;;;;;;;;;;;;;9.98;100.00;101122.78;5084419;28;20505;-77
2024/02/14 12:11:37;;;;;;;;;;;;;;;9.96;100.00;101123.00;5090961;28;19920;-79
2024/02/14 12:14:04;;;;;;;;;;;;;;;9.91;100.00;101120.00;5104088;28;19924;-78
2024/02/14 12:16:31;;;;;;;;;;;;;;;9.96;100.00;101114.91;5110158;28;20077;-78
2024/02/14 12:19:08;;;;;;;;;;;;;;;10.02;100.00;101116.03;5110327;28;19972;-78
2024/02/14 12:21:34;;;;;;;;;;;;;;;10.00;100.00;101113.50;5107421;28;20448;-78
2024/02/14 12:24:00;;;;;;;;;;;;;;;10.01;100.00;101114.34;5106165;28;19970;-78
2024/02/14 12:26:25;;;;;;;;;;;;;;;9.96;100.00;101111.38;5113215;28;19951;-78
2024/02/14 12:28:52;;;;;;;;;;;;;;;9.92;100.00;101105.53;5114327;28;19924;-79